Terminal Aerodrome Forecast
Issued by NWS

Current Version | Previous Version | Text Only | Print | Product List | Glossary On
Versions: 1 2 3 4 5 6 7 8 9 10 11 12 13 14 15
000
FTUS45 KVEF 251731
TAFDAG
TAF
KDAG 251731Z 2518/2618 25035G45KT P6SM SCT100 SCT150
     FM252000 25038G48KT P6SM FEW120
     FM260600 25024G34KT P6SM SCT250
     FM260900 25012G20KT P6SM SCT250=

USA.gov is the U.S. government's official web portal to all federal, state and local government web resources and services.